KSAN/SAN METAR and TAF weather

Enter ICAO airport designator
Station Type Date Time Source
KSAN METAR 2021/04/18 02:51 UTC NOAA

KSAN 180251Z 29006KT 10SM FEW014 FEW100 17/11 A2996 RMK AO2 SLP145 T01670111 53007


Station Type Date Time Source
KSAN Decoded METAR 2021/04/18 02:51 UTC NOAA

SAN DIEGO INTERNATIONAL \LINDBERGH FLD, CA, United States (KSAN) 32-44N 117-11W 12M
Apr 17, 2021 - 10:51 PM EDT / 2021.04.18 0251 UTC
Wind: from the WNW (290 degrees) at 7 MPH (6 KT):0
Visibility: 10 mile(s):0
Sky conditions: mostly clear
Temperature: 62.1 F (16.7 C)
Dew Point: 52.0 F (11.1 C)
Relative Humidity: 69%
Pressure (altimeter): 29.96 in. Hg (1014 hPa)
Pressure tendency: 0.02 inches (0.7 hPa) higher than three hours ago
ob: KSAN 180251Z 29006KT 10SM FEW014 FEW100 17/11 A2996 RMK AO2 SLP145 T01670111 53007
cycle: 3

Station Type Date Time Source
KSAN TAF 2021/04/18 03:45 UTC NOAA

TAF
AMD KSAN 180243Z 1803/1906 VRB04KT P6SM SCT100
FM180800 VRB04KT P6SM SCT007
FM181500 VRB04KT P6SM SKC
FM181800 32013KT P6SM FEW200
FM190200 31005KT P6SM FEW200

Example: see airport list